Time;durP1;ratioP1;P1;durP2;ratioP2;P2;SDS_P1;SDS_P2;PMS_P1;PMS_P2;Temp;Humidity;BMP_temperature;BMP_pressure;BME280_temperature;BME280_humidity;BME280_pressure;Samples;Min_cycle;Max_cycle;Signal;HPM_P1;HPM_P2
2023/06/11 00:01:30;;;;;;;0.47;0.20;;;;;;;21.19;48.53;101305.38;5008050;28;20033;-58
2023/06/11 00:03:57;;;;;;;0.30;0.10;;;;;;;21.14;48.39;101294.09;5006553;28;20042;-57
2023/06/11 00:06:23;;;;;;;1.17;0.45;;;;;;;21.11;48.88;101298.44;5010458;28;20721;-58
2023/06/11 00:08:54;;;;;;;0.28;0.25;;;;;;;21.09;49.02;101306.28;4993908;28;20041;-61
2023/06/11 00:11:21;;;;;;;0.15;0.15;;;;;;;21.13;48.56;101304.28;5007623;28;20120;-59
2023/06/11 00:13:48;;;;;;;0.73;0.32;;;;;;;21.12;48.27;101304.66;5010203;28;20068;-59
2023/06/11 00:16:14;;;;;;;0.63;0.35;;;;;;;20.98;48.61;101302.09;4992425;28;20068;-60
2023/06/11 00:18:41;;;;;;;0.65;0.20;;;;;;;20.91;49.03;101308.41;5002187;28;20153;-60
2023/06/11 00:21:12;;;;;;;0.25;0.17;;;;;;;20.77;49.29;101303.09;5000475;28;20397;-60
2023/06/11 00:23:37;;;;;;;1.00;0.60;;;;;;;20.57;49.67;101300.19;4983505;28;20038;-60
2023/06/11 00:26:05;;;;;;;0.70;0.30;;;;;;;20.71;49.55;101304.75;5010504;28;20026;-60
2023/06/11 00:28:31;;;;;;;0.55;0.30;;;;;;;20.61;49.57;101303.66;4994112;28;20662;-57
2023/06/11 00:30:57;;;;;;;0.20;0.17;;;;;;;20.61;49.78;101305.63;5000148;28;20062;-59
2023/06/11 00:33:22;;;;;;;0.00;0.00;;;;;;;;;;5000096;28;20060;-61
2023/06/11 00:35:48;;;;;;;1.13;0.30;;;;;;;20.57;49.74;101302.94;5006694;28;20369;-60
2023/06/11 00:38:34;;;;;;;0.25;0.10;;;;;;;20.43;50.47;101296.81;5006618;28;20373;-58
2023/06/11 00:40:59;;;;;;;0.20;0.20;;;;;;;20.41;50.54;101296.44;4980049;28;20097;-60
2023/06/11 00:43:26;;;;;;;1.73;0.40;;;;;;;20.47;50.48;101294.81;4986106;28;20062;-60
2023/06/11 00:45:52;;;;;;;0.32;0.20;;;;;;;20.42;50.55;101301.50;4979785;28;20046;-59
2023/06/11 00:48:20;;;;;;;0.90;0.40;;;;;;;20.12;51.38;101295.09;4986561;28;20844;-60
2023/06/11 00:50:50;;;;;;;0.50;0.20;;;;;;;20.19;51.14;101297.84;4985369;28;20092;-59
2023/06/11 00:53:17;;;;;;;1.40;0.30;;;;;;;20.30;51.27;101298.50;4984824;28;20137;-60
2023/06/11 00:55:45;;;;;;;0.70;0.30;;;;;;;20.31;51.22;101295.34;4979665;28;20043;-60
2023/06/11 00:58:13;;;;;;;0.30;0.20;;;;;;;20.31;51.09;101297.31;4983753;28;20440;-60
2023/06/11 01:00:45;;;;;;;0.50;0.25;;;;;;;20.35;51.05;101292.59;4986541;28;20043;-60
2023/06/11 01:03:17;;;;;;;0.40;0.30;;;;;;;20.29;50.99;101303.19;4985532;28;20092;-60
2023/06/11 01:05:47;;;;;;;0.75;0.50;;;;;;;19.85;51.99;101305.88;4984050;28;20065;-59
2023/06/11 01:08:17;;;;;;;0.98;0.40;;;;;;;19.99;51.87;101305.78;4979195;28;20521;-59
2023/06/11 01:10:44;;;;;;;0.22;0.22;;;;;;;20.07;51.69;101317.44;4962670;28;20034;-60
2023/06/11 01:13:11;;;;;;;0.20;0.20;;;;;;;20.06;51.65;101311.19;4969622;28;20045;-60
2023/06/11 01:15:37;;;;;;;0.38;0.30;;;;;;;20.30;51.50;101307.50;4985641;28;20038;-59
2023/06/11 01:18:13;;;;;;;0.28;0.17;;;;;;;20.05;51.36;101300.66;4994855;28;20559;-60
2023/06/11 01:21:02;;;;;;;0.30;0.25;;;;;;;19.82;52.33;101306.69;4983997;28;20038;-59
2023/06/11 01:23:55;;;;;;;0.32;0.22;;;;;;;19.72;52.51;101310.25;5009374;28;20034;-60
2023/06/11 01:26:33;;;;;;;0.20;0.20;;;;;;;19.88;52.38;101299.59;5002476;28;20657;-59
2023/06/11 01:29:00;;;;;;;0.32;0.32;;;;;;;19.88;52.43;101307.03;4985580;28;20030;-60
2023/06/11 01:31:31;;;;;;;0.20;0.20;;;;;;;19.90;52.45;101299.97;4992100;28;20050;-60
2023/06/11 01:33:58;;;;;;;1.23;0.20;;;;;;;20.04;52.10;101307.28;4992849;28;20076;-60
2023/06/11 01:36:29;;;;;;;0.80;0.28;;;;;;;19.96;52.10;101300.31;4994075;28;20930;-58
2023/06/11 01:38:58;;;;;;;0.95;0.40;;;;;;;20.10;51.83;101300.19;4992654;28;20124;-60
2023/06/11 01:41:40;;;;;;;0.28;0.20;;;;;;;19.93;52.10;101303.84;4999353;28;20026;-58
2023/06/11 01:44:07;;;;;;;0.20;0.20;;;;;;;19.98;52.20;101300.69;4989613;28;20081;-59
2023/06/11 01:46:33;;;;;;;1.73;0.45;;;;;;;19.79;52.61;101302.78;4990810;28;20034;-59
2023/06/11 01:48:58;;;;;;;0.55;0.35;;;;;;;19.82;52.49;101303.94;4986602;28;20075;-59
2023/06/11 01:51:24;;;;;;;2.00;0.30;;;;;;;19.68;52.71;101295.84;5003576;28;20103;-59
2023/06/11 01:53:51;;;;;;;2.47;1.17;;;;;;;19.67;52.94;101297.78;4993634;28;20034;-56
2023/06/11 01:56:16;;;;;;;0.20;0.15;;;;;;;19.57;53.18;101304.09;4996755;28;20072;-59
2023/06/11 01:58:45;;;;;;;0.13;0.10;;;;;;;19.56;53.34;101304.50;4982583;28;20061;-59
2023/06/11 02:01:12;;;;;;;2.45;0.20;;;;;;;19.52;53.49;101304.53;4992993;28;20030;-58
2023/06/11 02:03:42;;;;;;;0.50;0.20;;;;;;;19.57;53.36;101311.50;4991030;28;20037;-60
2023/06/11 02:06:08;;;;;;;0.20;0.20;;;;;;;19.43;53.85;101306.91;5006620;28;20034;-56
2023/06/11 02:08:34;;;;;;;0.85;0.85;;;;;;;19.37;54.24;101313.97;4992777;28;20087;-60
2023/06/11 02:10:59;;;;;;;0.20;0.20;;;;;;;19.31;54.14;101309.28;5006436;28;20393;-57
2023/06/11 02:13:30;;;;;;;0.38;0.30;;;;;;;19.25;54.66;101311.66;5008833;28;20041;-59
2023/06/11 02:15:59;;;;;;;0.20;0.20;;;;;;;19.21;54.65;101312.84;4994373;28;20055;-57
2023/06/11 02:18:25;;;;;;;0.17;0.17;;;;;;;19.23;54.58;101322.19;4981512;28;20091;-60
2023/06/11 02:20:50;;;;;;;0.50;0.40;;;;;;;19.20;54.90;101325.69;4990811;28;20038;-59
2023/06/11 02:23:17;;;;;;;1.55;0.35;;;;;;;19.26;54.65;101321.38;4995394;28;20061;-58
2023/06/11 02:25:43;;;;;;;0.30;0.30;;;;;;;19.17;54.72;101321.03;5012858;28;20030;-59
2023/06/11 02:28:10;;;;;;;0.43;0.32;;;;;;;19.10;55.13;101323.81;5010585;28;20052;-58
2023/06/11 02:30:35;;;;;;;0.38;0.30;;;;;;;18.88;55.95;101314.13;4995246;28;20018;-59
2023/06/11 02:33:01;;;;;;;0.60;0.30;;;;;;;18.99;55.99;101320.31;4982138;28;20066;-58
2023/06/11 02:35:28;;;;;;;0.40;0.30;;;;;;;18.98;56.10;101318.00;4995665;28;20113;-57
2023/06/11 02:37:53;;;;;;;0.40;0.40;;;;;;;19.03;55.76;101314.88;4995178;28;20512;-60
2023/06/11 02:40:19;;;;;;;0.52;0.20;;;;;;;18.98;55.69;101307.84;5001200;28;20024;-59
2023/06/11 02:42:44;;;;;;;0.10;0.10;;;;;;;18.96;56.39;101304.75;4992511;28;20029;-59
2023/06/11 02:45:10;;;;;;;0.80;0.32;;;;;;;19.05;55.94;101309.78;4993589;28;20038;-60
2023/06/11 02:47:35;;;;;;;0.35;0.20;;;;;;;19.12;55.83;101307.03;4992785;28;20041;-59
2023/06/11 02:50:01;;;;;;;1.08;0.63;;;;;;;19.01;56.19;101304.31;4993240;28;20072;-56
2023/06/11 02:52:48;;;;;;;0.75;0.40;;;;;;;19.11;56.04;101303.50;5007738;28;20603;-59
2023/06/11 02:55:13;;;;;;;0.30;0.30;;;;;;;18.98;56.73;101316.06;4927016;29;20044;-56
2023/06/11 02:57:39;;;;;;;1.35;0.47;;;;;;;19.11;56.23;101319.91;4919915;29;20566;-58
2023/06/11 03:00:05;;;;;;;1.48;0.43;;;;;;;19.06;56.40;101320.31;4920740;29;20036;-59
2023/06/11 03:02:31;;;;;;;0.77;0.22;;;;;;;19.01;56.68;101317.97;4908070;29;20072;-59
2023/06/11 03:04:56;;;;;;;1.30;0.63;;;;;;;18.84;57.15;101324.28;4915823;29;20044;-59
2023/06/11 03:07:24;;;;;;;0.40;0.25;;;;;;;18.93;56.92;101324.63;4930703;29;20212;-59
2023/06/11 03:09:50;;;;;;;1.17;0.17;;;;;;;18.77;57.63;101332.50;4927905;29;20024;-59
2023/06/11 03:12:16;;;;;;;0.22;0.22;;;;;;;18.71;58.17;101334.84;4923757;29;20059;-58
2023/06/11 03:14:41;;;;;;;0.43;0.43;;;;;;;18.55;58.96;101339.13;4913037;29;20067;-59
2023/06/11 03:17:07;;;;;;;0.30;0.30;;;;;;;18.59;58.76;101340.72;4911469;29;20035;-57
2023/06/11 03:19:32;;;;;;;0.22;0.22;;;;;;;18.66;59.22;101335.22;4904201;29;20036;-57
2023/06/11 03:21:59;;;;;;;0.20;0.20;;;;;;;18.76;58.57;101328.97;4902102;29;20110;-60
2023/06/11 03:24:24;;;;;;;0.15;0.15;;;;;;;18.84;58.54;101335.19;4919026;29;20126;-58
2023/06/11 03:26:56;;;;;;;0.30;0.30;;;;;;;18.98;57.90;101331.66;4925658;29;20469;-57
2023/06/11 03:29:22;;;;;;;1.15;0.40;;;;;;;18.87;58.28;101335.19;4910389;29;20130;-58
2023/06/11 03:31:53;;;;;;;0.70;0.30;;;;;;;18.86;58.76;101321.94;4938403;28;20168;-59
2023/06/11 03:34:22;;;;;;;0.20;0.20;;;;;;;18.64;59.58;101334.84;4988090;28;20428;-59
2023/06/11 03:36:51;;;;;;;4.65;0.22;;;;;;;18.78;58.97;101318.44;4991837;28;20033;-59
2023/06/11 03:39:16;;;;;;;0.38;0.30;;;;;;;18.45;60.88;101334.47;4992408;28;20021;-58
2023/06/11 03:41:44;;;;;;;0.22;0.20;;;;;;;18.52;60.59;101331.75;5005885;28;20061;-59
2023/06/11 03:44:11;;;;;;;0.20;0.10;;;;;;;18.62;60.32;101329.00;4974562;28;20034;-58
2023/06/11 03:46:37;;;;;;;0.50;0.50;;;;;;;18.37;61.02;101328.22;4986162;28;20026;-58
2023/06/11 03:49:03;;;;;;;0.40;0.35;;;;;;;18.46;61.61;101331.38;4993892;28;20027;-58
2023/06/11 03:51:29;;;;;;;1.00;0.32;;;;;;;18.54;61.71;101334.88;4988407;28;20030;-60
2023/06/11 03:53:54;;;;;;;1.58;0.50;;;;;;;18.75;61.22;101340.28;4991643;28;20094;-59
2023/06/11 03:56:20;;;;;;;0.25;0.20;;;;;;;18.63;61.55;101329.78;5007321;28;20369;-60
2023/06/11 03:58:45;;;;;;;0.52;0.50;;;;;;;18.66;61.42;101329.00;4997487;28;20658;-56
2023/06/11 04:01:12;;;;;;;1.85;0.65;;;;;;;18.83;61.15;101339.88;4986896;28;20527;-58
2023/06/11 04:03:37;;;;;;;0.73;0.47;;;;;;;18.99;60.38;101335.94;5001036;28;20057;-58
2023/06/11 04:06:03;;;;;;;0.30;0.30;;;;;;;18.91;60.41;101335.94;5000005;28;20535;-58
2023/06/11 04:08:28;;;;;;;0.30;0.30;;;;;;;18.91;61.05;101329.72;5000664;28;20053;-59
2023/06/11 04:10:54;;;;;;;0.60;0.40;;;;;;;18.97;60.38;101335.56;4992390;28;20066;-58
2023/06/11 04:13:20;;;;;;;0.30;0.30;;;;;;;18.98;60.70;101339.84;4998924;28;20021;-55
2023/06/11 04:15:46;;;;;;;0.38;0.35;;;;;;;19.08;60.73;101339.03;4990441;28;20062;-58
2023/06/11 04:18:12;;;;;;;0.30;0.20;;;;;;;19.11;60.95;101343.69;4973321;28;20049;-55
2023/06/11 04:20:37;;;;;;;0.22;0.22;;;;;;;19.33;60.11;101345.22;4993104;28;20401;-58
2023/06/11 04:23:04;;;;;;;0.10;0.10;;;;;;;19.23;59.83;101335.84;4972669;28;20038;-57
2023/06/11 04:25:33;;;;;;;0.57;0.30;;;;;;;19.27;60.13;101341.28;4991767;28;20030;-57
2023/06/11 04:28:00;;;;;;;0.28;0.28;;;;;;;19.36;60.13;101334.25;4991725;28;20405;-59
2023/06/11 04:30:26;;;;;;;0.40;0.20;;;;;;;19.21;60.78;101338.19;4989520;28;20029;-57
2023/06/11 04:32:56;;;;;;;0.57;0.52;;;;;;;19.38;60.22;101340.09;4982195;28;20045;-57
2023/06/11 04:35:24;;;;;;;0.15;0.15;;;;;;;19.39;60.85;101336.22;4984694;28;21689;-56
2023/06/11 04:37:51;;;;;;;0.35;0.35;;;;;;;19.49;61.20;101337.34;4996676;28;20152;-59
2023/06/11 04:40:23;;;;;;;0.47;0.47;;;;;;;19.60;60.43;101336.09;4991046;28;20026;-58
2023/06/11 04:42:49;;;;;;;0.93;0.45;;;;;;;19.58;60.71;101330.25;5005586;28;20069;-59
2023/06/11 04:45:18;;;;;;;0.70;0.55;;;;;;;19.77;59.89;101335.22;4992132;28;20022;-60
2023/06/11 04:47:48;;;;;;;5.65;0.93;;;;;;;19.84;59.56;101333.63;4991207;28;20392;-58
2023/06/11 04:50:20;;;;;;;0.30;0.30;;;;;;;19.59;61.05;101341.94;4970392;28;20193;-59
2023/06/11 04:52:51;;;;;;;0.32;0.30;;;;;;;19.69;61.38;101343.84;4983674;28;20072;-59
2023/06/11 04:55:18;;;;;;;0.20;0.20;;;;;;;19.62;61.17;101336.47;4989415;28;20489;-59
2023/06/11 04:57:45;;;;;;;1.30;0.40;;;;;;;19.76;60.69;101336.38;4975088;28;20096;-59
2023/06/11 05:00:13;;;;;;;2.88;0.57;;;;;;;19.92;60.64;101340.59;4997951;28;20110;-58
2023/06/11 05:02:44;;;;;;;0.50;0.30;;;;;;;20.06;60.34;101335.78;4998742;28;20042;-60
2023/06/11 05:05:10;;;;;;;1.25;0.50;;;;;;;20.28;59.06;101339.97;4999526;28;20021;-59
2023/06/11 05:07:36;;;;;;;3.65;0.43;;;;;;;20.32;59.02;101339.91;4994267;28;20025;-59
2023/06/11 05:10:02;;;;;;;6.82;0.70;;;;;;;20.38;59.44;101336.31;4992433;28;20026;-59
2023/06/11 05:12:29;;;;;;;0.75;0.30;;;;;;;20.58;59.37;101337.31;4997097;28;20072;-60
2023/06/11 05:14:55;;;;;;;0.63;0.38;;;;;;;21.02;58.68;101344.72;4991102;28;20068;-60
2023/06/11 05:17:21;;;;;;;0.55;0.40;;;;;;;21.60;56.63;101342.84;4995096;28;20560;-58
2023/06/11 05:19:47;;;;;;;1.73;0.70;;;;;;;21.93;54.50;101331.78;4991671;28;20113;-59
2023/06/11 05:22:13;;;;;;;0.50;0.47;;;;;;;22.39;53.85;101345.56;4995290;28;20113;-60
2023/06/11 05:24:41;;;;;;;0.60;0.32;;;;;;;22.71;52.49;101331.25;4989192;28;20038;-60
2023/06/11 05:27:08;;;;;;;0.95;0.45;;;;;;;23.17;51.55;101335.88;5010068;28;20018;-60
2023/06/11 05:29:35;;;;;;;0.50;0.50;;;;;;;23.51;50.96;101341.06;4993976;28;20396;-60
2023/06/11 05:32:02;;;;;;;0.73;0.40;;;;;;;23.60;50.10;101346.75;4999079;28;20497;-59
2023/06/11 05:34:30;;;;;;;0.45;0.40;;;;;;;23.74;49.68;101344.47;4991238;28;20052;-60
2023/06/11 05:36:58;;;;;;;0.57;0.47;;;;;;;23.86;48.63;101343.03;4998351;28;20030;-60
2023/06/11 05:39:24;;;;;;;1.88;0.55;;;;;;;23.92;48.38;101346.81;5012006;28;20133;-59
2023/06/11 05:41:50;;;;;;;0.55;0.40;;;;;;;24.03;48.91;101347.38;5004574;28;20105;-60
2023/06/11 05:44:17;;;;;;;1.50;0.63;;;;;;;24.13;48.21;101349.09;4994860;28;20446;-59
2023/06/11 05:47:04;;;;;;;0.85;0.45;;;;;;;24.34;48.33;101347.78;4997790;28;20033;-60
2023/06/11 05:49:51;;;;;;;0.30;0.30;;;;;;;24.43;47.98;101356.25;4927516;29;20090;-60
2023/06/11 05:52:20;;;;;;;0.57;0.43;;;;;;;24.69;47.38;101344.13;4881144;29;20043;-60
2023/06/11 05:54:46;;;;;;;0.40;0.40;;;;;;;24.67;47.64;101352.84;4899925;29;20103;-60
2023/06/11 05:57:24;;;;;;;1.00;0.40;;;;;;;24.72;47.10;101351.53;4882744;29;20036;-59
2023/06/11 05:59:52;;;;;;;0.55;0.50;;;;;;;24.58;47.53;101358.19;4898143;29;20047;-60
2023/06/11 06:02:18;;;;;;;0.50;0.38;;;;;;;24.68;46.97;101357.13;4875631;29;20499;-59
2023/06/11 06:05:06;;;;;;;0.80;0.52;;;;;;;24.89;47.15;101362.09;4880025;29;20495;-59
2023/06/11 06:07:32;;;;;;;0.52;0.43;;;;;;;24.86;46.92;101367.69;4849129;29;20128;-59
2023/06/11 06:09:58;;;;;;;1.83;0.57;;;;;;;24.85;46.82;101366.16;4851526;29;20128;-60
2023/06/11 06:12:24;;;;;;;0.65;0.60;;;;;;;24.97;46.65;101359.94;4855614;29;20530;-60
2023/06/11 06:14:49;;;;;;;1.35;0.82;;;;;;;24.81;47.89;101359.97;4841583;29;20051;-60
2023/06/11 06:17:16;;;;;;;0.95;0.55;;;;;;;25.00;47.20;101353.53;4849217;29;20052;-58
2023/06/11 06:20:04;;;;;;;0.68;0.45;;;;;;;25.06;47.05;101357.31;4849539;29;20050;-60
2023/06/11 06:22:29;;;;;;;3.60;0.47;;;;;;;25.22;46.50;101353.72;4801807;29;20039;-60
2023/06/11 06:24:56;;;;;;;1.40;0.70;;;;;;;25.41;46.61;101361.06;4795329;29;20130;-60
2023/06/11 06:27:22;;;;;;;1.63;0.50;;;;;;;25.47;45.76;101359.31;4826931;29;20137;-58
2023/06/11 06:29:48;;;;;;;0.70;0.60;;;;;;;25.44;45.73;101355.44;4834824;29;20047;-57
2023/06/11 06:32:15;;;;;;;0.43;0.40;;;;;;;25.41;46.07;101372.09;4838098;29;20046;-59
2023/06/11 06:34:40;;;;;;;0.55;0.45;;;;;;;25.45;46.65;101361.75;4822024;29;20042;-60
2023/06/11 06:37:06;;;;;;;7.78;0.70;;;;;;;25.48;45.82;101369.13;4844308;29;20054;-60
2023/06/11 06:39:32;;;;;;;1.02;0.68;;;;;;;25.40;45.40;101371.31;4857934;29;20046;-60
2023/06/11 06:41:58;;;;;;;0.68;0.50;;;;;;;25.54;46.39;101367.38;4823089;29;20152;-59
2023/06/11 06:44:35;;;;;;;0.70;0.43;;;;;;;25.69;46.13;101369.25;4873315;29;20214;-60
2023/06/11 06:47:01;;;;;;;1.88;0.50;;;;;;;25.84;46.13;101362.09;4924734;29;20051;-59
2023/06/11 06:49:26;;;;;;;3.30;0.40;;;;;;;26.02;46.17;101363.50;4902861;29;20019;-58
2023/06/11 06:51:52;;;;;;;1.23;0.60;;;;;;;26.18;45.21;101363.41;4943375;29;20058;-60
2023/06/11 06:54:18;;;;;;;1.17;0.60;;;;;;;26.22;44.47;101367.63;4921557;29;20071;-59
2023/06/11 06:56:46;;;;;;;1.33;0.80;;;;;;;25.92;44.89;101362.63;4914742;29;20055;-59
2023/06/11 06:59:12;;;;;;;0.85;0.60;;;;;;;26.08;45.54;101365.31;4968993;28;20112;-59
2023/06/11 07:01:38;;;;;;;1.15;0.90;;;;;;;26.04;45.62;101369.38;4983238;28;20096;-59
2023/06/11 07:04:06;;;;;;;0.73;0.40;;;;;;;26.16;45.95;101366.63;4989808;28;20038;-59
2023/06/11 07:06:32;;;;;;;0.82;0.50;;;;;;;26.36;45.30;101369.94;4992952;28;20080;-59
2023/06/11 07:08:57;;;;;;;0.70;0.50;;;;;;;26.54;44.40;101375.59;5003765;28;20030;-57
2023/06/11 07:11:23;;;;;;;3.47;0.50;;;;;;;26.70;44.47;101374.72;4971220;28;20028;-59
2023/06/11 07:13:49;;;;;;;2.15;0.70;;;;;;;26.91;43.60;101370.41;4991214;28;20511;-60
2023/06/11 07:16:14;;;;;;;1.40;0.50;;;;;;;26.78;42.71;101368.50;4975642;28;20239;-57
2023/06/11 07:18:46;;;;;;;1.20;0.75;;;;;;;26.85;43.51;101377.75;4990423;28;20026;-58
2023/06/11 07:21:13;;;;;;;0.93;0.52;;;;;;;26.96;43.28;101372.63;4992598;28;20041;-59
2023/06/11 07:23:38;;;;;;;0.75;0.60;;;;;;;27.14;42.91;101370.00;5009108;28;20380;-59
2023/06/11 07:26:05;;;;;;;1.77;0.82;;;;;;;27.21;42.28;101376.03;4993893;28;20087;-59
2023/06/11 07:28:30;;;;;;;1.27;0.68;;;;;;;27.27;42.76;101374.25;4975196;28;20026;-58
2023/06/11 07:30:57;;;;;;;1.23;0.43;;;;;;;27.42;42.70;101380.03;4992084;28;20030;-59
2023/06/11 07:33:23;;;;;;;1.05;0.50;;;;;;;27.42;43.14;101372.50;4990393;28;20378;-58
2023/06/11 07:35:49;;;;;;;0.70;0.70;;;;;;;27.47;43.42;101382.97;5002355;28;20026;-58
2023/06/11 07:38:17;;;;;;;1.00;0.57;;;;;;;27.64;42.23;101384.28;4988072;28;20030;-59
2023/06/11 07:40:43;;;;;;;0.47;0.47;;;;;;;27.75;42.62;101383.13;4992468;28;20099;-58
2023/06/11 07:43:08;;;;;;;0.70;0.45;;;;;;;27.71;43.02;101383.25;4992492;28;20072;-58
2023/06/11 07:45:34;;;;;;;0.65;0.57;;;;;;;27.84;42.87;101381.16;4987714;28;20400;-59
2023/06/11 07:48:00;;;;;;;1.25;0.85;;;;;;;28.00;41.89;101382.94;4992983;28;20032;-58
2023/06/11 07:50:26;;;;;;;5.15;0.60;;;;;;;28.01;42.75;101382.47;4990781;28;20405;-59
2023/06/11 07:53:12;;;;;;;1.63;0.80;;;;;;;28.19;42.07;101379.00;4991333;28;20034;-59
2023/06/11 07:55:40;;;;;;;1.60;0.88;;;;;;;28.37;40.73;101390.91;4913910;29;20044;-58
2023/06/11 07:58:05;;;;;;;1.17;0.50;;;;;;;28.50;40.88;101385.22;4926014;29;20161;-58
2023/06/11 08:00:31;;;;;;;1.08;0.50;;;;;;;28.50;40.74;101386.00;4930080;29;20562;-58
2023/06/11 08:02:56;;;;;;;1.10;0.60;;;;;;;28.41;40.02;101383.22;4931297;29;20067;-59
2023/06/11 08:05:21;;;;;;;2.10;0.60;;;;;;;28.47;41.30;101386.91;4933300;29;20062;-59
2023/06/11 08:07:48;;;;;;;0.98;0.63;;;;;;;28.41;41.15;101374.91;4929331;29;20055;-61
2023/06/11 08:10:14;;;;;;;0.82;0.50;;;;;;;28.52;41.73;101374.44;4925628;29;20035;-59
2023/06/11 08:12:41;;;;;;;0.40;0.40;;;;;;;28.73;40.24;101379.09;4916004;29;20134;-59
2023/06/11 08:15:07;;;;;;;0.57;0.47;;;;;;;28.87;40.63;101372.16;4928855;29;20047;-57
2023/06/11 08:17:32;;;;;;;1.33;0.73;;;;;;;28.83;40.56;101374.31;4928759;29;20035;-57
2023/06/11 08:19:59;;;;;;;0.30;0.30;;;;;;;28.91;41.30;101378.34;4932007;29;20031;-58
2023/06/11 08:22:25;;;;;;;3.17;0.57;;;;;;;29.11;40.02;101378.63;4914283;29;20035;-58
2023/06/11 08:24:50;;;;;;;1.67;0.43;;;;;;;29.37;40.00;101377.06;4927737;29;20038;-59
2023/06/11 08:27:16;;;;;;;1.13;0.63;;;;;;;29.49;40.85;101384.44;4927683;29;20170;-58
2023/06/11 08:29:41;;;;;;;0.80;0.40;;;;;;;29.62;40.01;101373.91;4921891;29;20123;-59
2023/06/11 08:32:07;;;;;;;0.82;0.68;;;;;;;29.55;39.66;101374.25;4949017;28;20045;-59
2023/06/11 08:34:32;;;;;;;0.93;0.45;;;;;;;29.68;39.91;101380.34;5006213;28;20096;-58
2023/06/11 08:36:58;;;;;;;1.48;0.63;;;;;;;29.71;40.13;101367.56;4988756;28;20136;-59
2023/06/11 08:39:23;;;;;;;1.80;0.82;;;;;;;29.64;39.88;101376.97;5000426;28;20045;-58
2023/06/11 08:41:49;;;;;;;1.35;0.75;;;;;;;29.92;39.95;101366.56;5001038;28;20025;-59
2023/06/11 08:44:15;;;;;;;1.88;0.98;;;;;;;30.11;39.83;101371.56;5009244;28;21356;-57
2023/06/11 08:46:44;;;;;;;0.70;0.70;;;;;;;30.28;39.05;101371.94;5004699;28;20030;-59
2023/06/11 08:49:18;;;;;;;0.57;0.55;;;;;;;30.24;38.94;101379.66;5012659;28;20034;-59
2023/06/11 08:51:43;;;;;;;0.70;0.57;;;;;;;30.36;38.51;101378.69;5008945;28;20045;-59
2023/06/11 08:54:09;;;;;;;1.13;0.68;;;;;;;30.46;38.61;101371.03;5009183;28;20044;-59
2023/06/11 08:56:55;;;;;;;0.73;0.70;;;;;;;30.59;38.60;101374.34;5012115;28;20720;-59
2023/06/11 08:59:21;;;;;;;1.13;0.70;;;;;;;30.35;38.80;101373.59;4952409;28;20047;-59
2023/06/11 09:01:50;;;;;;;0.93;0.60;;;;;;;30.52;37.72;101374.72;4951782;28;20051;-59
2023/06/11 09:04:20;;;;;;;0.57;0.57;;;;;;;30.69;37.57;101381.38;4966700;28;20059;-58
2023/06/11 09:06:52;;;;;;;0.90;0.60;;;;;;;30.77;37.29;101369.41;4952910;28;20047;-58
2023/06/11 09:09:18;;;;;;;0.40;0.40;;;;;;;30.80;37.30;101379.56;4941504;28;20542;-59
2023/06/11 09:11:45;;;;;;;0.60;0.55;;;;;;;30.69;37.62;101375.81;4932603;28;20050;-59
2023/06/11 09:14:10;;;;;;;0.60;0.50;;;;;;;30.90;37.16;101378.28;4955080;28;20113;-59
2023/06/11 09:16:41;;;;;;;1.00;0.65;;;;;;;31.02;36.34;101373.69;4950341;28;20047;-59
2023/06/11 09:19:11;;;;;;;;;;;;;;;31.05;36.63;101367.94;4945922;28;20082;-58
2023/06/11 09:21:37;;;;;;;0.60;0.40;;;;;;;31.15;37.16;101365.81;4948309;28;19918;-59
2023/06/11 09:24:07;;;;;;;2.75;0.52;;;;;;;31.30;37.38;101379.78;4951350;28;20372;-59
2023/06/11 09:26:33;;;;;;;1.10;0.60;;;;;;;31.46;36.76;101362.59;4951577;29;20058;-59
2023/06/11 09:29:02;;;;;;;1.13;0.43;;;;;;;31.71;36.35;101370.31;4948532;28;20295;-59
2023/06/11 09:31:29;;;;;;;0.57;0.50;;;;;;;31.72;35.66;101374.66;4949279;28;20098;-60
2023/06/11 09:34:22;;;;;;;0.90;0.60;;;;;;;31.70;36.33;101377.94;4948864;28;20043;-60
2023/06/11 09:36:48;;;;;;;0.68;0.50;;;;;;;32.04;36.32;101364.53;4893444;29;20467;-58
2023/06/11 09:39:15;;;;;;;0.80;0.70;;;;;;;32.25;35.74;101366.81;4908955;29;20044;-58
2023/06/11 09:41:48;;;;;;;1.10;0.63;;;;;;;32.38;35.15;101381.22;4908931;29;20134;-58
2023/06/11 09:44:16;;;;;;;1.25;0.65;;;;;;;32.19;34.03;101374.34;4904644;29;20480;-58
2023/06/11 09:46:42;;;;;;;1.00;0.60;;;;;;;32.36;33.76;101372.56;4900523;29;20079;-58
2023/06/11 09:49:08;;;;;;;0.80;0.60;;;;;;;31.64;33.93;101374.28;4897432;29;20527;-59
2023/06/11 09:51:37;;;;;;;1.33;0.60;;;;;;;31.87;34.50;101373.38;4911123;29;20032;-58
2023/06/11 09:54:04;;;;;;;1.05;0.68;;;;;;;32.21;34.60;101371.09;4906263;29;20092;-58
2023/06/11 09:56:30;;;;;;;0.70;0.50;;;;;;;32.30;32.86;101371.72;4899448;29;20040;-59
2023/06/11 09:58:56;;;;;;;0.60;0.52;;;;;;;32.57;33.30;101378.94;4902474;29;20051;-57
2023/06/11 10:01:25;;;;;;;0.57;0.50;;;;;;;32.75;33.67;101379.41;4906215;29;20070;-57
2023/06/11 10:03:51;;;;;;;1.80;0.47;;;;;;;32.70;31.57;101377.31;4904905;29;20108;-57
2023/06/11 10:06:22;;;;;;;0.85;0.60;;;;;;;32.95;31.58;101372.25;4910141;29;20499;-55
2023/06/11 10:08:51;;;;;;;0.50;0.50;;;;;;;33.04;31.08;101381.28;4911466;29;20519;-57
2023/06/11 10:11:21;;;;;;;0.85;0.40;;;;;;;32.74;32.50;101374.31;4911996;29;20154;-60
2023/06/11 10:14:11;;;;;;;1.55;0.55;;;;;;;32.99;31.60;101376.38;4944957;28;20052;-55
2023/06/11 10:16:37;;;;;;;0.90;0.43;;;;;;;33.02;32.28;101375.41;4995067;28;20038;-53
2023/06/11 10:19:07;;;;;;;0.57;0.45;;;;;;;33.01;32.11;101373.88;5010699;28;20038;-53
2023/06/11 10:21:52;;;;;;;0.73;0.60;;;;;;;33.31;31.79;101371.63;5000251;28;20443;-51
2023/06/11 10:24:25;;;;;;;0.70;0.70;;;;;;;33.46;31.34;101370.22;5003032;28;20038;-57
2023/06/11 10:27:12;;;;;;;0.40;0.40;;;;;;;33.54;32.15;101370.56;5011001;28;20033;-57
2023/06/11 10:29:41;;;;;;;0.63;0.40;;;;;;;33.56;30.98;101363.22;5005351;28;20496;-53
2023/06/11 10:32:15;;;;;;;0.75;0.40;;;;;;;33.62;31.32;101375.19;5008809;28;20108;-58
2023/06/11 10:34:41;;;;;;;1.00;0.50;;;;;;;33.66;31.42;101358.94;5002620;28;20686;-57
2023/06/11 10:37:06;;;;;;;0.75;0.57;;;;;;;33.79;31.31;101354.97;5011470;23;20069;-63
2023/06/11 10:39:32;;;;;;;1.08;0.60;;;;;;;33.82;31.32;101354.00;5006314;28;20030;-63
2023/06/11 10:42:00;;;;;;;0.75;0.50;;;;;;;34.13;30.17;101356.72;4993624;28;20045;-63
2023/06/11 10:44:26;;;;;;;0.70;0.47;;;;;;;34.20;29.99;101353.47;4995925;28;20051;-64
2023/06/11 10:46:53;;;;;;;0.70;0.60;;;;;;;34.49;29.92;101350.31;5000294;28;20040;-62
2023/06/11 10:49:36;;;;;;;0.77;0.50;;;;;;;34.27;29.17;101361.38;5000633;28;20691;-63
2023/06/11 10:52:03;;;;;;;3.63;0.43;;;;;;;34.21;29.11;101346.59;5002272;28;20041;-63
2023/06/11 10:54:33;;;;;;;0.70;0.40;;;;;;;34.25;29.54;101342.28;5023131;28;20030;-64
2023/06/11 10:57:00;;;;;;;0.63;0.50;;;;;;;34.46;28.25;101357.66;5004140;28;20066;-63
2023/06/11 10:59:26;;;;;;;1.70;0.70;;;;;;;34.54;28.12;101355.16;5006142;28;20076;-63
2023/06/11 11:01:56;;;;;;;0.80;0.60;;;;;;;34.66;27.73;101342.72;5010915;28;20108;-63
2023/06/11 11:04:44;;;;;;;0.52;0.52;;;;;;;34.77;28.15;101345.53;5004141;28;20037;-63
2023/06/11 11:07:10;;;;;;;1.05;0.70;;;;;;;34.88;29.40;101353.97;4903465;29;20062;-60
2023/06/11 11:09:35;;;;;;;0.77;0.65;;;;;;;35.08;26.86;101345.34;4923985;29;20040;-65
2023/06/11 11:12:06;;;;;;;1.08;0.73;;;;;;;36.23;28.10;101345.75;4927338;29;20569;-64
2023/06/11 11:14:31;;;;;;;0.57;0.57;;;;;;;37.56;26.82;101356.16;4927997;29;20078;-63
2023/06/11 11:17:00;;;;;;;0.40;0.30;;;;;;;37.96;27.24;101363.72;4927783;29;20039;-62
2023/06/11 11:19:27;;;;;;;1.20;0.50;;;;;;;39.10;25.61;101358.41;4923144;29;20070;-62
2023/06/11 11:21:52;;;;;;;1.10;0.52;;;;;;;39.84;24.69;101351.72;4928432;29;20118;-64
2023/06/11 11:24:18;;;;;;;2.15;0.60;;;;;;;40.62;24.73;101354.47;4928286;29;20099;-62
2023/06/11 11:26:45;;;;;;;0.40;0.22;;;;;;;41.12;22.62;101350.47;4932546;29;20046;-64
2023/06/11 11:29:12;;;;;;;0.80;0.50;;;;;;;41.73;23.19;101344.03;4909686;29;20219;-64
2023/06/11 11:31:38;;;;;;;0.50;0.40;;;;;;;41.59;22.28;101345.44;4928896;29;20585;-63